sensor_id;sensor_type;location;lat;lon;timestamp;pressure;altitude;pressure_sealevel;temperature;humidity
67377;BME280;54261;46.086;6.588;2023-04-20T00:03:46;92066.91;;;8.49;44.44
67377;BME280;54261;46.086;6.588;2023-04-20T00:08:48;92061.84;;;9.66;44.55
67377;BME280;54261;46.086;6.588;2023-04-20T00:13:49;92042.63;;;10.32;41.95
67377;BME280;54261;46.086;6.588;2023-04-20T00:18:51;92040.56;;;10.51;41.49
67377;BME280;54261;46.086;6.588;2023-04-20T00:23:53;92032.59;;;10.63;40.40
67377;BME280;54261;46.086;6.588;2023-04-20T00:28:55;92027.53;;;10.83;40.17
67377;BME280;54261;46.086;6.588;2023-04-20T00:33:57;92010.53;;;10.36;39.34
67377;BME280;54261;46.086;6.588;2023-04-20T00:39:00;92004.66;;;9.31;41.45
67377;BME280;54261;46.086;6.588;2023-04-20T00:44:06;91985.25;;;8.69;41.96
67377;BME280;54261;46.086;6.588;2023-04-20T00:49:08;92000.16;;;8.79;41.65
67377;BME280;54261;46.086;6.588;2023-04-20T00:54:11;91997.22;;;8.10;42.71
67377;BME280;54261;46.086;6.588;2023-04-20T00:59:13;91984.31;;;8.30;43.05
67377;BME280;54261;46.086;6.588;2023-04-20T01:04:16;91980.19;;;8.76;42.71
67377;BME280;54261;46.086;6.588;2023-04-20T01:09:19;91966.09;;;9.24;42.14
67377;BME280;54261;46.086;6.588;2023-04-20T01:14:21;91969.25;;;9.08;42.19
67377;BME280;54261;46.086;6.588;2023-04-20T01:19:23;91967.19;;;9.83;41.33
67377;BME280;54261;46.086;6.588;2023-04-20T01:24:25;91948.19;;;8.98;41.02
67377;BME280;54261;46.086;6.588;2023-04-20T01:29:28;91952.41;;;9.46;40.26
67377;BME280;54261;46.086;6.588;2023-04-20T01:34:30;91942.16;;;9.18;40.52
67377;BME280;54261;46.086;6.588;2023-04-20T01:39:37;91930.97;;;8.51;41.86
67377;BME280;54261;46.086;6.588;2023-04-20T01:44:39;91923.63;;;8.39;42.01
67377;BME280;54261;46.086;6.588;2023-04-20T01:49:41;91918.47;;;7.90;42.08
67377;BME280;54261;46.086;6.588;2023-04-20T01:54:43;91908.06;;;7.97;43.48
67377;BME280;54261;46.086;6.588;2023-04-20T01:59:45;91898.28;;;7.48;42.90
67377;BME280;54261;46.086;6.588;2023-04-20T02:04:47;91882.41;;;8.40;42.15
67377;BME280;54261;46.086;6.588;2023-04-20T02:09:49;91893.25;;;7.64;42.68
67377;BME280;54261;46.086;6.588;2023-04-20T02:14:51;91896.31;;;7.05;44.46
67377;BME280;54261;46.086;6.588;2023-04-20T02:19:55;91892.16;;;7.57;43.24
67377;BME280;54261;46.086;6.588;2023-04-20T02:24:56;91896.09;;;8.47;43.63
67377;BME280;54261;46.086;6.588;2023-04-20T02:29:58;91893.75;;;9.02;42.58
67377;BME280;54261;46.086;6.588;2023-04-20T02:35:01;91877.25;;;8.35;44.33
67377;BME280;54261;46.086;6.588;2023-04-20T02:40:06;91884.28;;;8.96;43.00
67377;BME280;54261;46.086;6.588;2023-04-20T02:45:08;91879.31;;;9.25;41.69
67377;BME280;54261;46.086;6.588;2023-04-20T02:50:11;91887.75;;;8.97;42.29
67377;BME280;54261;46.086;6.588;2023-04-20T02:55:31;91877.69;;;9.02;41.87
67377;BME280;54261;46.086;6.588;2023-04-20T03:00:38;91890.88;;;9.38;42.01
67377;BME280;54261;46.086;6.588;2023-04-20T03:05:42;91891.16;;;6.22;49.13
67377;BME280;54261;46.086;6.588;2023-04-20T03:10:44;91879.66;;;7.92;45.14
67377;BME280;54261;46.086;6.588;2023-04-20T03:15:52;91888.41;;;7.84;45.14
67377;BME280;54261;46.086;6.588;2023-04-20T03:21:05;91891.16;;;6.22;48.14
67377;BME280;54261;46.086;6.588;2023-04-20T03:26:07;91877.97;;;1.81;63.41
67377;BME280;54261;46.086;6.588;2023-04-20T03:31:19;91872.66;;;4.93;53.73
67377;BME280;54261;46.086;6.588;2023-04-20T03:36:23;91865.22;;;6.68;50.32
67377;BME280;54261;46.086;6.588;2023-04-20T03:41:25;91864.78;;;7.33;47.85
67377;BME280;54261;46.086;6.588;2023-04-20T03:46:28;91848.19;;;7.98;47.40
67377;BME280;54261;46.086;6.588;2023-04-20T03:51:30;91853.84;;;7.79;46.94
67377;BME280;54261;46.086;6.588;2023-04-20T03:56:33;91857.59;;;2.65;60.11
67377;BME280;54261;46.086;6.588;2023-04-20T04:01:35;91852.31;;;5.99;53.70
67377;BME280;54261;46.086;6.588;2023-04-20T04:06:40;91845.28;;;6.34;50.93
67377;BME280;54261;46.086;6.588;2023-04-20T04:11:42;91831.69;;;7.52;49.89
67377;BME280;54261;46.086;6.588;2023-04-20T04:16:44;91848.31;;;8.11;47.46
67377;BME280;54261;46.086;6.588;2023-04-20T04:21:46;91840.47;;;8.71;46.09
67377;BME280;54261;46.086;6.588;2023-04-20T04:26:49;91845.56;;;8.93;45.17
67377;BME280;54261;46.086;6.588;2023-04-20T04:31:52;91846.19;;;8.52;42.73
67377;BME280;54261;46.086;6.588;2023-04-20T04:36:55;91852.34;;;8.91;43.87
67377;BME280;54261;46.086;6.588;2023-04-20T04:42:05;91862.91;;;8.31;44.28
67377;BME280;54261;46.086;6.588;2023-04-20T04:47:14;91865.63;;;6.21;48.35
67377;BME280;54261;46.086;6.588;2023-04-20T04:52:18;91865.50;;;6.99;47.02
67377;BME280;54261;46.086;6.588;2023-04-20T04:57:21;91872.34;;;7.49;46.96
67377;BME280;54261;46.086;6.588;2023-04-20T05:02:23;91860.66;;;7.09;47.41
67377;BME280;54261;46.086;6.588;2023-04-20T05:07:25;91850.28;;;6.99;45.71
67377;BME280;54261;46.086;6.588;2023-04-20T05:12:27;91866.22;;;6.81;47.74
67377;BME280;54261;46.086;6.588;2023-04-20T05:17:29;91867.19;;;7.44;47.52
67377;BME280;54261;46.086;6.588;2023-04-20T05:22:31;91864.50;;;7.26;46.55
67377;BME280;54261;46.086;6.588;2023-04-20T05:27:33;91840.63;;;6.72;48.44
67377;BME280;54261;46.086;6.588;2023-04-20T05:32:35;91861.50;;;6.47;48.01
67377;BME280;54261;46.086;6.588;2023-04-20T05:37:37;91856.19;;;5.69;49.53
67377;BME280;54261;46.086;6.588;2023-04-20T05:42:39;91838.44;;;5.28;53.63
67377;BME280;54261;46.086;6.588;2023-04-20T05:47:51;91834.31;;;7.08;49.80
67377;BME280;54261;46.086;6.588;2023-04-20T05:52:53;91858.66;;;3.07;57.79
67377;BME280;54261;46.086;6.588;2023-04-20T05:57:55;91861.16;;;3.56;57.30
67377;BME280;54261;46.086;6.588;2023-04-20T06:02:56;91857.47;;;3.57;57.52
67377;BME280;54261;46.086;6.588;2023-04-20T06:07:58;91853.06;;;3.99;55.97
67377;BME280;54261;46.086;6.588;2023-04-20T06:13:00;91860.53;;;5.65;54.93
67377;BME280;54261;46.086;6.588;2023-04-20T06:18:02;91853.91;;;3.62;58.42
67377;BME280;54261;46.086;6.588;2023-04-20T06:23:04;91854.25;;;6.07;53.83
67377;BME280;54261;46.086;6.588;2023-04-20T06:28:06;91847.28;;;5.01;53.60
67377;BME280;54261;46.086;6.588;2023-04-20T06:33:08;91823.09;;;6.88;52.55
67377;BME280;54261;46.086;6.588;2023-04-20T06:38:13;91831.88;;;4.13;56.05
67377;BME280;54261;46.086;6.588;2023-04-20T06:43:15;91829.56;;;2.58;60.83
67377;BME280;54261;46.086;6.588;2023-04-20T06:48:17;91826.88;;;4.12;56.00
67377;BME280;54261;46.086;6.588;2023-04-20T06:53:33;91826.94;;;4.07;60.31
67377;BME280;54261;46.086;6.588;2023-04-20T06:58:35;91827.25;;;5.03;54.25
67377;BME280;54261;46.086;6.588;2023-04-20T07:03:37;91813.22;;;1.68;64.88
67377;BME280;54261;46.086;6.588;2023-04-20T07:08:39;91785.25;;;0.92;68.21
67377;BME280;54261;46.086;6.588;2023-04-20T07:13:41;91741.59;;;0.44;68.50
67377;BME280;54261;46.086;6.588;2023-04-20T07:18:43;91840.59;;;3.28;60.86
67377;BME280;54261;46.086;6.588;2023-04-20T07:23:45;91850.41;;;5.53;57.19
67377;BME280;54261;46.086;6.588;2023-04-20T07:28:49;91827.91;;;3.64;61.56
67377;BME280;54261;46.086;6.588;2023-04-20T07:33:51;91843.59;;;6.38;56.77
67377;BME280;54261;46.086;6.588;2023-04-20T07:38:54;91834.88;;;6.96;52.09
67377;BME280;54261;46.086;6.588;2023-04-20T07:43:55;91829.38;;;3.18;58.42
67377;BME280;54261;46.086;6.588;2023-04-20T07:48:57;91830.44;;;2.73;66.11
67377;BME280;54261;46.086;6.588;2023-04-20T07:53:59;91826.16;;;0.95;69.07
67377;BME280;54261;46.086;6.588;2023-04-20T07:59:01;91819.38;;;3.09;60.40
67377;BME280;54261;46.086;6.588;2023-04-20T08:04:03;91838.09;;;1.32;71.45
67377;BME280;54261;46.086;6.588;2023-04-20T08:09:06;91850.72;;;1.45;69.31
67377;BME280;54261;46.086;6.588;2023-04-20T08:14:08;91835.16;;;5.31;62.08
67377;BME280;54261;46.086;6.588;2023-04-20T08:19:10;91833.59;;;5.90;55.90
67377;BME280;54261;46.086;6.588;2023-04-20T08:24:12;91829.78;;;1.09;68.66
67377;BME280;54261;46.086;6.588;2023-04-20T08:29:14;91807.25;;;3.41;64.31
67377;BME280;54261;46.086;6.588;2023-04-20T08:34:17;91839.03;;;5.25;59.59
67377;BME280;54261;46.086;6.588;2023-04-20T08:39:20;91834.97;;;2.72;62.75
67377;BME280;54261;46.086;6.588;2023-04-20T08:44:25;91845.53;;;2.24;67.52
67377;BME280;54261;46.086;6.588;2023-04-20T08:49:27;91856.25;;;2.86;63.99
67377;BME280;54261;46.086;6.588;2023-04-20T08:54:33;91856.59;;;3.04;66.23
67377;BME280;54261;46.086;6.588;2023-04-20T08:59:37;91875.34;;;5.58;59.29
67377;BME280;54261;46.086;6.588;2023-04-20T09:04:40;91865.16;;;5.96;56.51
67377;BME280;54261;46.086;6.588;2023-04-20T09:09:55;91861.19;;;5.34;57.49
67377;BME280;54261;46.086;6.588;2023-04-20T09:14:58;91861.78;;;6.36;55.71
67377;BME280;54261;46.086;6.588;2023-04-20T09:20:00;91857.72;;;4.69;58.97
67377;BME280;54261;46.086;6.588;2023-04-20T09:25:17;91854.56;;;7.18;52.74
67377;BME280;54261;46.086;6.588;2023-04-20T09:30:20;91831.78;;;3.85;59.47
67377;BME280;54261;46.086;6.588;2023-04-20T09:35:22;91831.44;;;5.92;58.00
67377;BME280;54261;46.086;6.588;2023-04-20T09:40:24;91853.00;;;7.26;53.63
67377;BME280;54261;46.086;6.588;2023-04-20T09:45:28;91847.81;;;8.26;52.99
67377;BME280;54261;46.086;6.588;2023-04-20T09:50:31;91854.09;;;8.87;51.03
67377;BME280;54261;46.086;6.588;2023-04-20T09:55:50;91864.16;;;9.29;49.38
67377;BME280;54261;46.086;6.588;2023-04-20T10:00:55;91854.38;;;9.54;48.78
67377;BME280;54261;46.086;6.588;2023-04-20T10:05:57;91840.94;;;9.12;48.60
67377;BME280;54261;46.086;6.588;2023-04-20T10:10:59;91841.63;;;8.61;48.60
67377;BME280;54261;46.086;6.588;2023-04-20T10:16:00;91838.50;;;8.89;47.33
67377;BME280;54261;46.086;6.588;2023-04-20T10:21:05;91831.97;;;9.80;46.98
67377;BME280;54261;46.086;6.588;2023-04-20T10:26:07;91838.13;;;9.81;46.45
67377;BME280;54261;46.086;6.588;2023-04-20T10:31:11;91831.75;;;10.40;45.97
67377;BME280;54261;46.086;6.588;2023-04-20T10:36:24;91817.75;;;10.81;45.29
67377;BME280;54261;46.086;6.588;2023-04-20T10:41:26;91808.81;;;11.01;44.47
67377;BME280;54261;46.086;6.588;2023-04-20T10:46:28;91801.19;;;7.27;51.66
67377;BME280;54261;46.086;6.588;2023-04-20T10:51:29;91794.03;;;5.97;54.31
67377;BME280;54261;46.086;6.588;2023-04-20T10:56:53;91796.34;;;7.73;50.71
67377;BME280;54261;46.086;6.588;2023-04-20T11:01:55;91812.53;;;6.34;51.23
67377;BME280;54261;46.086;6.588;2023-04-20T11:07:06;91817.03;;;4.68;57.37
67377;BME280;54261;46.086;6.588;2023-04-20T11:12:10;91810.69;;;5.06;56.58
67377;BME280;54261;46.086;6.588;2023-04-20T11:17:16;91823.81;;;7.29;49.54
67377;BME280;54261;46.086;6.588;2023-04-20T11:22:21;91813.13;;;7.56;50.39
67377;BME280;54261;46.086;6.588;2023-04-20T11:27:26;91837.66;;;7.49;48.14
67377;BME280;54261;46.086;6.588;2023-04-20T11:32:28;91857.22;;;6.37;49.74
67377;BME280;54261;46.086;6.588;2023-04-20T11:37:30;91844.88;;;7.57;50.05
67377;BME280;54261;46.086;6.588;2023-04-20T11:42:32;91847.91;;;8.56;48.40
67377;BME280;54261;46.086;6.588;2023-04-20T11:47:34;91834.66;;;9.08;46.23
67377;BME280;54261;46.086;6.588;2023-04-20T11:52:36;91824.72;;;9.59;45.66
67377;BME280;54261;46.086;6.588;2023-04-20T11:57:38;91827.00;;;9.48;44.90
67377;BME280;54261;46.086;6.588;2023-04-20T12:02:40;91823.13;;;9.16;45.11
67377;BME280;54261;46.086;6.588;2023-04-20T12:07:42;91832.34;;;9.27;44.53
67377;BME280;54261;46.086;6.588;2023-04-20T12:12:44;91835.53;;;8.43;45.15
67377;BME280;54261;46.086;6.588;2023-04-20T12:17:46;91853.38;;;8.12;46.53
67377;BME280;54261;46.086;6.588;2023-04-20T12:22:48;91845.34;;;7.68;46.53
67377;BME280;54261;46.086;6.588;2023-04-20T12:27:50;91836.41;;;6.79;48.06
67377;BME280;54261;46.086;6.588;2023-04-20T12:32:52;91844.19;;;7.07;47.18
67377;BME280;54261;46.086;6.588;2023-04-20T12:37:54;91856.34;;;6.82;49.15
67377;BME280;54261;46.086;6.588;2023-04-20T12:42:56;91840.34;;;6.82;47.91
67377;BME280;54261;46.086;6.588;2023-04-20T12:47:58;91868.25;;;6.44;48.94
67377;BME280;54261;46.086;6.588;2023-04-20T12:53:01;91887.84;;;6.71;48.38
67377;BME280;54261;46.086;6.588;2023-04-20T12:58:03;91901.09;;;7.43;47.35
67377;BME280;54261;46.086;6.588;2023-04-20T13:03:05;91899.88;;;6.68;47.91
67377;BME280;54261;46.086;6.588;2023-04-20T13:08:07;91913.75;;;7.20;48.33
67377;BME280;54261;46.086;6.588;2023-04-20T13:13:10;91927.09;;;6.79;47.32
67377;BME280;54261;46.086;6.588;2023-04-20T13:18:12;91934.09;;;7.56;46.38
67377;BME280;54261;46.086;6.588;2023-04-20T13:23:15;91936.31;;;7.54;46.00
67377;BME280;54261;46.086;6.588;2023-04-20T13:28:18;91916.41;;;7.96;44.62
67377;BME280;54261;46.086;6.588;2023-04-20T13:33:20;91926.88;;;8.62;44.64
67377;BME280;54261;46.086;6.588;2023-04-20T13:38:21;91933.63;;;8.77;44.13
67377;BME280;54261;46.086;6.588;2023-04-20T13:43:24;91933.22;;;8.31;44.39
67377;BME280;54261;46.086;6.588;2023-04-20T13:48:26;91915.13;;;8.46;44.73
67377;BME280;54261;46.086;6.588;2023-04-20T13:53:27;91907.94;;;6.77;46.79
67377;BME280;54261;46.086;6.588;2023-04-20T13:58:29;91905.03;;;3.10;53.96
67377;BME280;54261;46.086;6.588;2023-04-20T14:03:31;91908.56;;;3.82;54.23
67377;BME280;54261;46.086;6.588;2023-04-20T14:08:33;91920.94;;;5.14;52.65
67377;BME280;54261;46.086;6.588;2023-04-20T14:13:36;91926.06;;;4.96;52.66
67377;BME280;54261;46.086;6.588;2023-04-20T14:18:38;91918.03;;;5.66;50.97
67377;BME280;54261;46.086;6.588;2023-04-20T14:23:40;91922.00;;;5.41;50.54
67377;BME280;54261;46.086;6.588;2023-04-20T14:28:42;91914.78;;;6.15;49.18
67377;BME280;54261;46.086;6.588;2023-04-20T14:33:44;91906.25;;;5.31;51.22
67377;BME280;54261;46.086;6.588;2023-04-20T14:38:46;91901.53;;;6.78;49.39
67377;BME280;54261;46.086;6.588;2023-04-20T14:43:48;91892.03;;;5.35;51.66
67377;BME280;54261;46.086;6.588;2023-04-20T14:48:50;91893.78;;;6.14;51.33
67377;BME280;54261;46.086;6.588;2023-04-20T14:53:52;91889.03;;;6.97;49.72
67377;BME280;54261;46.086;6.588;2023-04-20T14:58:54;91872.25;;;6.96;50.91
67377;BME280;54261;46.086;6.588;2023-04-20T15:03:57;91865.00;;;7.81;53.48
67377;BME280;54261;46.086;6.588;2023-04-20T15:09:00;91858.16;;;8.54;48.36
67377;BME280;54261;46.086;6.588;2023-04-20T15:14:01;91872.53;;;9.18;45.99
67377;BME280;54261;46.086;6.588;2023-04-20T15:19:03;91878.22;;;9.47;45.83
67377;BME280;54261;46.086;6.588;2023-04-20T15:24:05;91878.19;;;9.26;44.58
67377;BME280;54261;46.086;6.588;2023-04-20T15:29:07;91870.00;;;8.83;43.84
67377;BME280;54261;46.086;6.588;2023-04-20T15:34:09;91878.47;;;9.54;43.11
67377;BME280;54261;46.086;6.588;2023-04-20T15:39:11;91885.69;;;9.84;42.91
67377;BME280;54261;46.086;6.588;2023-04-20T15:44:13;91886.75;;;10.13;42.56
67377;BME280;54261;46.086;6.588;2023-04-20T15:49:15;91877.91;;;10.80;41.67
67377;BME280;54261;46.086;6.588;2023-04-20T15:54:20;91868.66;;;11.39;41.48
67377;BME280;54261;46.086;6.588;2023-04-20T15:59:24;91857.44;;;11.50;41.15
67377;BME280;54261;46.086;6.588;2023-04-20T16:04:26;91867.47;;;11.78;40.65
67377;BME280;54261;46.086;6.588;2023-04-20T16:09:28;91869.97;;;11.58;40.16
67377;BME280;54261;46.086;6.588;2023-04-20T16:14:30;91871.56;;;10.51;40.48
67377;BME280;54261;46.086;6.588;2023-04-20T16:19:32;91864.44;;;8.58;43.79
67377;BME280;54261;46.086;6.588;2023-04-20T16:24:35;91865.78;;;7.82;46.47
67377;BME280;54261;46.086;6.588;2023-04-20T16:29:36;91857.94;;;9.16;44.37
67377;BME280;54261;46.086;6.588;2023-04-20T16:34:39;91855.41;;;9.62;44.46
67377;BME280;54261;46.086;6.588;2023-04-20T16:39:42;91862.53;;;10.22;43.52
67377;BME280;54261;46.086;6.588;2023-04-20T16:44:44;91842.06;;;9.96;42.37
67377;BME280;54261;46.086;6.588;2023-04-20T16:49:46;91861.13;;;10.37;42.27
67377;BME280;54261;46.086;6.588;2023-04-20T16:54:48;91861.84;;;10.46;42.90
67377;BME280;54261;46.086;6.588;2023-04-20T16:59:49;91855.94;;;10.19;44.16
67377;BME280;54261;46.086;6.588;2023-04-20T17:04:51;91856.00;;;10.10;43.51
67377;BME280;54261;46.086;6.588;2023-04-20T17:09:53;91846.75;;;11.00;42.87
67377;BME280;54261;46.086;6.588;2023-04-20T17:14:55;91856.59;;;10.16;42.48
67377;BME280;54261;46.086;6.588;2023-04-20T17:19:57;91860.06;;;9.95;44.51
67377;BME280;54261;46.086;6.588;2023-04-20T17:24:59;91866.16;;;9.83;43.96
67377;BME280;54261;46.086;6.588;2023-04-20T17:30:02;91851.31;;;10.07;43.83
67377;BME280;54261;46.086;6.588;2023-04-20T17:35:05;91849.06;;;10.09;43.35
67377;BME280;54261;46.086;6.588;2023-04-20T17:40:07;91859.69;;;10.85;43.13
67377;BME280;54261;46.086;6.588;2023-04-20T17:45:09;91857.47;;;11.00;42.65
67377;BME280;54261;46.086;6.588;2023-04-20T17:50:11;91863.41;;;8.81;47.46
67377;BME280;54261;46.086;6.588;2023-04-20T17:55:14;91853.56;;;10.51;44.10
67377;BME280;54261;46.086;6.588;2023-04-20T18:00:16;91877.28;;;11.20;41.01
67377;BME280;54261;46.086;6.588;2023-04-20T18:05:18;91883.88;;;11.10;40.45
67377;BME280;54261;46.086;6.588;2023-04-20T18:10:20;91879.91;;;10.83;40.00
67377;BME280;54261;46.086;6.588;2023-04-20T18:15:22;91873.94;;;11.23;39.80
67377;BME280;54261;46.086;6.588;2023-04-20T18:20:24;91866.31;;;11.13;39.09
67377;BME280;54261;46.086;6.588;2023-04-20T18:25:26;91837.47;;;10.05;39.78
67377;BME280;54261;46.086;6.588;2023-04-20T18:30:27;91866.44;;;10.58;39.10
67377;BME280;54261;46.086;6.588;2023-04-20T18:35:29;91860.38;;;10.15;39.91
67377;BME280;54261;46.086;6.588;2023-04-20T18:40:31;91860.25;;;9.69;40.01
67377;BME280;54261;46.086;6.588;2023-04-20T18:45:33;91865.66;;;9.39;41.54
67377;BME280;54261;46.086;6.588;2023-04-20T18:50:35;91862.44;;;8.85;42.06
67377;BME280;54261;46.086;6.588;2023-04-20T18:55:37;91869.38;;;7.77;44.11
67377;BME280;54261;46.086;6.588;2023-04-20T19:00:40;91872.69;;;8.83;43.11
67377;BME280;54261;46.086;6.588;2023-04-20T19:05:42;91885.88;;;8.41;44.09
67377;BME280;54261;46.086;6.588;2023-04-20T19:10:44;91887.19;;;8.82;43.51
67377;BME280;54261;46.086;6.588;2023-04-20T19:15:46;91910.56;;;8.94;43.37
67377;BME280;54261;46.086;6.588;2023-04-20T19:20:48;91911.03;;;8.40;43.58
67377;BME280;54261;46.086;6.588;2023-04-20T19:25:49;91916.41;;;8.04;45.31
67377;BME280;54261;46.086;6.588;2023-04-20T19:30:51;91898.13;;;8.50;44.71
67377;BME280;54261;46.086;6.588;2023-04-20T19:35:53;91907.59;;;9.34;44.22
67377;BME280;54261;46.086;6.588;2023-04-20T19:40:56;91900.88;;;7.13;47.22
67377;BME280;54261;46.086;6.588;2023-04-20T19:45:58;91910.06;;;5.38;52.03
67377;BME280;54261;46.086;6.588;2023-04-20T19:51:00;91880.41;;;5.31;53.33
67377;BME280;54261;46.086;6.588;2023-04-20T19:56:04;91909.22;;;3.93;57.64
67377;BME280;54261;46.086;6.588;2023-04-20T20:01:07;91883.28;;;6.40;50.95
67377;BME280;54261;46.086;6.588;2023-04-20T20:06:09;91898.66;;;7.06;49.26
67377;BME280;54261;46.086;6.588;2023-04-20T20:11:11;91912.91;;;7.77;49.71
67377;BME280;54261;46.086;6.588;2023-04-20T20:16:13;91913.22;;;7.76;48.44
67377;BME280;54261;46.086;6.588;2023-04-20T20:21:15;91904.78;;;5.10;53.32
67377;BME280;54261;46.086;6.588;2023-04-20T20:26:17;91918.34;;;7.37;49.37
67377;BME280;54261;46.086;6.588;2023-04-20T20:31:19;91920.91;;;6.38;51.59
67377;BME280;54261;46.086;6.588;2023-04-20T20:36:21;91909.59;;;7.45;49.92
67377;BME280;54261;46.086;6.588;2023-04-20T20:41:22;91922.69;;;8.17;48.29
67377;BME280;54261;46.086;6.588;2023-04-20T20:46:24;91901.75;;;8.37;46.97
67377;BME280;54261;46.086;6.588;2023-04-20T20:51:27;91882.31;;;6.99;46.61
67377;BME280;54261;46.086;6.588;2023-04-20T20:56:29;91887.72;;;7.26;47.53
67377;BME280;54261;46.086;6.588;2023-04-20T21:01:30;91889.88;;;7.15;46.74
67377;BME280;54261;46.086;6.588;2023-04-20T21:06:32;91895.16;;;7.82;46.87
67377;BME280;54261;46.086;6.588;2023-04-20T21:11:34;91894.56;;;8.11;46.71
67377;BME280;54261;46.086;6.588;2023-04-20T21:16:36;91899.09;;;8.28;45.85
67377;BME280;54261;46.086;6.588;2023-04-20T21:21:38;91896.06;;;7.42;47.76
67377;BME280;54261;46.086;6.588;2023-04-20T21:26:40;91883.97;;;8.41;45.50
67377;BME280;54261;46.086;6.588;2023-04-20T21:31:42;91888.59;;;7.97;45.76
67377;BME280;54261;46.086;6.588;2023-04-20T21:36:44;91902.19;;;8.57;45.05
67377;BME280;54261;46.086;6.588;2023-04-20T21:41:46;91892.00;;;8.32;43.86
67377;BME280;54261;46.086;6.588;2023-04-20T21:46:48;91898.22;;;7.31;46.41
67377;BME280;54261;46.086;6.588;2023-04-20T21:51:49;91893.94;;;8.05;45.73
67377;BME280;54261;46.086;6.588;2023-04-20T21:56:51;91901.06;;;8.67;44.54
67377;BME280;54261;46.086;6.588;2023-04-20T22:01:53;91890.63;;;7.06;47.41
67377;BME280;54261;46.086;6.588;2023-04-20T22:06:55;91885.44;;;8.03;46.79
67377;BME280;54261;46.086;6.588;2023-04-20T22:11:58;91886.81;;;7.48;45.15
67377;BME280;54261;46.086;6.588;2023-04-20T22:17:02;91885.69;;;8.46;45.09
67377;BME280;54261;46.086;6.588;2023-04-20T22:22:05;91901.31;;;8.00;44.45
67377;BME280;54261;46.086;6.588;2023-04-20T22:27:07;91893.47;;;8.12;44.54
67377;BME280;54261;46.086;6.588;2023-04-20T22:32:09;91901.34;;;8.74;43.22
67377;BME280;54261;46.086;6.588;2023-04-20T22:37:11;91897.22;;;8.20;43.06
67377;BME280;54261;46.086;6.588;2023-04-20T22:42:13;91906.78;;;8.39;44.02
67377;BME280;54261;46.086;6.588;2023-04-20T22:47:15;91850.38;;;7.87;43.32
67377;BME280;54261;46.086;6.588;2023-04-20T22:52:17;91889.03;;;8.16;43.75
67377;BME280;54261;46.086;6.588;2023-04-20T22:57:18;91913.38;;;8.41;43.44
67377;BME280;54261;46.086;6.588;2023-04-20T23:02:21;91903.59;;;8.63;43.45
67377;BME280;54261;46.086;6.588;2023-04-20T23:07:23;91900.69;;;8.03;43.37
67377;BME280;54261;46.086;6.588;2023-04-20T23:12:25;91902.56;;;8.29;43.87
67377;BME280;54261;46.086;6.588;2023-04-20T23:17:27;91905.97;;;8.56;43.76
67377;BME280;54261;46.086;6.588;2023-04-20T23:22:29;91905.19;;;8.55;43.49
67377;BME280;54261;46.086;6.588;2023-04-20T23:27:31;91888.88;;;8.87;43.20
67377;BME280;54261;46.086;6.588;2023-04-20T23:32:33;91896.25;;;7.72;44.25
67377;BME280;54261;46.086;6.588;2023-04-20T23:37:35;91886.50;;;7.76;43.29
67377;BME280;54261;46.086;6.588;2023-04-20T23:42:36;91895.50;;;7.98;44.36
67377;BME280;54261;46.086;6.588;2023-04-20T23:47:38;91888.13;;;7.94;43.66
67377;BME280;54261;46.086;6.588;2023-04-20T23:52:40;91880.53;;;7.52;44.70
67377;BME280;54261;46.086;6.588;2023-04-20T23:57:42;91884.47;;;7.55;45.01
